sensor_id;sensor_type;location;lat;lon;timestamp;temperature;humidity
46055;DHT22;31788;6.954;-71.872;2022-08-21T00:00:25;26.20;99.90
46055;DHT22;31788;6.954;-71.872;2022-08-21T00:02:59;26.20;99.90
46055;DHT22;31788;6.954;-71.872;2022-08-21T00:05:27;26.20;99.90
46055;DHT22;31788;6.954;-71.872;2022-08-21T00:07:55;26.20;99.90
46055;DHT22;31788;6.954;-71.872;2022-08-21T00:10:22;26.30;99.90
46055;DHT22;31788;6.954;-71.872;2022-08-21T00:12:50;26.40;99.90
46055;DHT22;31788;6.954;-71.872;2022-08-21T00:15:22;26.50;99.90
46055;DHT22;31788;6.954;-71.872;2022-08-21T00:17:49;26.50;99.90
46055;DHT22;31788;6.954;-71.872;2022-08-21T00:20:19;26.50;99.90
46055;DHT22;31788;6.954;-71.872;2022-08-21T00:22:47;26.50;99.90
46055;DHT22;31788;6.954;-71.872;2022-08-21T00:25:15;26.50;99.90
46055;DHT22;31788;6.954;-71.872;2022-08-21T00:27:43;26.40;99.90
46055;DHT22;31788;6.954;-71.872;2022-08-21T00:30:12;26.30;99.90
46055;DHT22;31788;6.954;-71.872;2022-08-21T00:32:40;26.30;99.90
46055;DHT22;31788;6.954;-71.872;2022-08-21T00:35:10;26.40;99.90
46055;DHT22;31788;6.954;-71.872;2022-08-21T00:37:38;26.40;99.90
46055;DHT22;31788;6.954;-71.872;2022-08-21T00:40:09;26.40;99.90
46055;DHT22;31788;6.954;-71.872;2022-08-21T00:42:36;26.40;99.90
46055;DHT22;31788;6.954;-71.872;2022-08-21T00:45:04;26.40;99.90
46055;DHT22;31788;6.954;-71.872;2022-08-21T00:47:31;26.40;99.90
46055;DHT22;31788;6.954;-71.872;2022-08-21T00:49:58;26.40;99.90
46055;DHT22;31788;6.954;-71.872;2022-08-21T00:52:29;26.40;99.90
46055;DHT22;31788;6.954;-71.872;2022-08-21T00:54:58;26.30;99.90
46055;DHT22;31788;6.954;-71.872;2022-08-21T00:57:30;26.30;99.90
46055;DHT22;31788;6.954;-71.872;2022-08-21T01:00:01;26.40;99.90
46055;DHT22;31788;6.954;-71.872;2022-08-21T01:02:29;26.50;99.90
46055;DHT22;31788;6.954;-71.872;2022-08-21T01:04:56;26.40;99.90
46055;DHT22;31788;6.954;-71.872;2022-08-21T01:07:23;26.40;99.90
46055;DHT22;31788;6.954;-71.872;2022-08-21T01:09:51;26.40;99.90
46055;DHT22;31788;6.954;-71.872;2022-08-21T01:12:18;26.50;99.90
46055;DHT22;31788;6.954;-71.872;2022-08-21T01:14:45;26.40;99.90
46055;DHT22;31788;6.954;-71.872;2022-08-21T01:17:13;26.30;99.90
46055;DHT22;31788;6.954;-71.872;2022-08-21T01:19:43;26.20;99.90
46055;DHT22;31788;6.954;-71.872;2022-08-21T01:22:12;26.20;99.90
46055;DHT22;31788;6.954;-71.872;2022-08-21T01:24:39;26.10;99.90
46055;DHT22;31788;6.954;-71.872;2022-08-21T01:27:06;26.20;99.90
46055;DHT22;31788;6.954;-71.872;2022-08-21T01:29:57;26.10;99.90
46055;DHT22;31788;6.954;-71.872;2022-08-21T01:32:24;26.10;99.90
46055;DHT22;31788;6.954;-71.872;2022-08-21T01:34:52;26.10;99.90
46055;DHT22;31788;6.954;-71.872;2022-08-21T01:37:21;26.10;99.90
46055;DHT22;31788;6.954;-71.872;2022-08-21T01:39:48;26.20;99.90
46055;DHT22;31788;6.954;-71.872;2022-08-21T01:42:17;26.20;99.90
46055;DHT22;31788;6.954;-71.872;2022-08-21T01:44:43;26.30;99.90
46055;DHT22;31788;6.954;-71.872;2022-08-21T01:47:15;26.30;99.90
46055;DHT22;31788;6.954;-71.872;2022-08-21T01:49:44;26.20;99.90
46055;DHT22;31788;6.954;-71.872;2022-08-21T01:52:13;26.20;99.90
46055;DHT22;31788;6.954;-71.872;2022-08-21T01:54:40;26.10;99.90
46055;DHT22;31788;6.954;-71.872;2022-08-21T01:57:09;26.10;99.90
46055;DHT22;31788;6.954;-71.872;2022-08-21T01:59:37;26.10;99.90
46055;DHT22;31788;6.954;-71.872;2022-08-21T02:02:06;26.20;99.90
46055;DHT22;31788;6.954;-71.872;2022-08-21T02:04:33;26.10;99.90
46055;DHT22;31788;6.954;-71.872;2022-08-21T02:07:01;26.10;99.90
46055;DHT22;31788;6.954;-71.872;2022-08-21T02:09:29;26.20;99.90
46055;DHT22;31788;6.954;-71.872;2022-08-21T02:11:56;26.20;99.90
46055;DHT22;31788;6.954;-71.872;2022-08-21T02:14:23;26.20;99.90
46055;DHT22;31788;6.954;-71.872;2022-08-21T02:16:53;26.10;99.90
46055;DHT22;31788;6.954;-71.872;2022-08-21T02:19:20;26.20;99.90
46055;DHT22;31788;6.954;-71.872;2022-08-21T02:21:46;26.10;99.90
46055;DHT22;31788;6.954;-71.872;2022-08-21T02:24:13;26.20;99.90
46055;DHT22;31788;6.954;-71.872;2022-08-21T02:26:40;26.10;99.90
46055;DHT22;31788;6.954;-71.872;2022-08-21T02:29:06;26.20;99.90
46055;DHT22;31788;6.954;-71.872;2022-08-21T02:31:34;26.20;99.90
46055;DHT22;31788;6.954;-71.872;2022-08-21T02:34:00;26.20;99.90
46055;DHT22;31788;6.954;-71.872;2022-08-21T02:36:27;26.20;99.90
46055;DHT22;31788;6.954;-71.872;2022-08-21T02:38:55;26.20;99.90
46055;DHT22;31788;6.954;-71.872;2022-08-21T02:41:22;26.20;99.90
46055;DHT22;31788;6.954;-71.872;2022-08-21T02:43:52;26.10;99.90
46055;DHT22;31788;6.954;-71.872;2022-08-21T02:46:20;26.10;99.90
46055;DHT22;31788;6.954;-71.872;2022-08-21T02:48:48;26.00;99.90
46055;DHT22;31788;6.954;-71.872;2022-08-21T02:51:17;25.90;99.90
46055;DHT22;31788;6.954;-71.872;2022-08-21T02:53:47;25.90;99.90
46055;DHT22;31788;6.954;-71.872;2022-08-21T02:56:17;25.90;99.90
46055;DHT22;31788;6.954;-71.872;2022-08-21T02:58:47;25.90;99.90
46055;DHT22;31788;6.954;-71.872;2022-08-21T03:01:15;25.90;99.90
46055;DHT22;31788;6.954;-71.872;2022-08-21T03:03:45;25.90;99.90
46055;DHT22;31788;6.954;-71.872;2022-08-21T03:06:14;25.90;99.90
46055;DHT22;31788;6.954;-71.872;2022-08-21T03:08:41;26.00;99.90
46055;DHT22;31788;6.954;-71.872;2022-08-21T03:11:13;26.00;99.90
46055;DHT22;31788;6.954;-71.872;2022-08-21T03:13:43;26.00;99.90
46055;DHT22;31788;6.954;-71.872;2022-08-21T03:16:11;26.00;99.90
46055;DHT22;31788;6.954;-71.872;2022-08-21T03:18:38;26.00;99.90
46055;DHT22;31788;6.954;-71.872;2022-08-21T03:21:05;25.90;99.90
46055;DHT22;31788;6.954;-71.872;2022-08-21T03:23:32;25.90;99.90
46055;DHT22;31788;6.954;-71.872;2022-08-21T03:25:59;25.80;99.90
46055;DHT22;31788;6.954;-71.872;2022-08-21T03:28:26;25.70;99.90
46055;DHT22;31788;6.954;-71.872;2022-08-21T03:30:53;25.80;99.90
46055;DHT22;31788;6.954;-71.872;2022-08-21T03:33:20;25.70;99.90
46055;DHT22;31788;6.954;-71.872;2022-08-21T03:35:56;25.70;99.90
46055;DHT22;31788;6.954;-71.872;2022-08-21T03:38:24;25.70;99.90
46055;DHT22;31788;6.954;-71.872;2022-08-21T03:40:50;25.70;99.90
46055;DHT22;31788;6.954;-71.872;2022-08-21T03:43:17;25.70;99.90
46055;DHT22;31788;6.954;-71.872;2022-08-21T03:45:44;25.70;99.90
46055;DHT22;31788;6.954;-71.872;2022-08-21T03:48:11;25.60;99.90
46055;DHT22;31788;6.954;-71.872;2022-08-21T03:50:42;25.60;99.90
46055;DHT22;31788;6.954;-71.872;2022-08-21T03:53:11;25.50;99.90
46055;DHT22;31788;6.954;-71.872;2022-08-21T03:55:39;25.50;99.90
46055;DHT22;31788;6.954;-71.872;2022-08-21T03:58:05;25.50;99.90
46055;DHT22;31788;6.954;-71.872;2022-08-21T04:00:32;25.40;99.90
46055;DHT22;31788;6.954;-71.872;2022-08-21T04:02:59;25.40;99.90
46055;DHT22;31788;6.954;-71.872;2022-08-21T04:05:26;25.50;99.90
46055;DHT22;31788;6.954;-71.872;2022-08-21T04:08:02;25.60;99.90
46055;DHT22;31788;6.954;-71.872;2022-08-21T04:10:31;25.60;99.90
46055;DHT22;31788;6.954;-71.872;2022-08-21T04:12:58;25.60;99.90
46055;DHT22;31788;6.954;-71.872;2022-08-21T04:15:25;25.50;99.90
46055;DHT22;31788;6.954;-71.872;2022-08-21T04:17:52;25.60;99.90
46055;DHT22;31788;6.954;-71.872;2022-08-21T04:20:20;25.60;99.90
46055;DHT22;31788;6.954;-71.872;2022-08-21T04:22:48;25.60;99.90
46055;DHT22;31788;6.954;-71.872;2022-08-21T04:25:18;25.60;99.90
46055;DHT22;31788;6.954;-71.872;2022-08-21T04:27:46;25.60;99.90
46055;DHT22;31788;6.954;-71.872;2022-08-21T04:30:14;25.70;99.90
46055;DHT22;31788;6.954;-71.872;2022-08-21T04:32:48;25.70;99.90
46055;DHT22;31788;6.954;-71.872;2022-08-21T04:35:18;25.70;99.90
46055;DHT22;31788;6.954;-71.872;2022-08-21T04:37:45;25.80;99.90
46055;DHT22;31788;6.954;-71.872;2022-08-21T04:40:14;25.80;99.90
46055;DHT22;31788;6.954;-71.872;2022-08-21T04:42:44;25.90;99.90
46055;DHT22;31788;6.954;-71.872;2022-08-21T04:45:27;25.90;99.90
46055;DHT22;31788;6.954;-71.872;2022-08-21T04:47:56;25.80;99.90
46055;DHT22;31788;6.954;-71.872;2022-08-21T04:50:26;25.70;99.90
46055;DHT22;31788;6.954;-71.872;2022-08-21T04:52:54;25.70;99.90
46055;DHT22;31788;6.954;-71.872;2022-08-21T04:55:22;25.90;99.90
46055;DHT22;31788;6.954;-71.872;2022-08-21T04:57:49;25.90;99.90
46055;DHT22;31788;6.954;-71.872;2022-08-21T05:00:20;25.90;99.90
46055;DHT22;31788;6.954;-71.872;2022-08-21T05:02:49;25.90;99.90
46055;DHT22;31788;6.954;-71.872;2022-08-21T05:05:18;25.90;99.90
46055;DHT22;31788;6.954;-71.872;2022-08-21T05:07:45;25.90;99.90
46055;DHT22;31788;6.954;-71.872;2022-08-21T05:10:13;25.90;99.90
46055;DHT22;31788;6.954;-71.872;2022-08-21T05:12:41;25.80;99.90
46055;DHT22;31788;6.954;-71.872;2022-08-21T05:15:11;25.90;99.90
46055;DHT22;31788;6.954;-71.872;2022-08-21T05:17:38;25.80;99.90
46055;DHT22;31788;6.954;-71.872;2022-08-21T05:20:05;25.70;99.90
46055;DHT22;31788;6.954;-71.872;2022-08-21T05:22:32;25.70;99.90
46055;DHT22;31788;6.954;-71.872;2022-08-21T05:24:58;25.50;99.90
46055;DHT22;31788;6.954;-71.872;2022-08-21T05:27:25;25.50;99.90
46055;DHT22;31788;6.954;-71.872;2022-08-21T05:29:52;25.50;99.90
46055;DHT22;31788;6.954;-71.872;2022-08-21T05:32:18;25.60;99.90
46055;DHT22;31788;6.954;-71.872;2022-08-21T05:34:45;25.60;99.90
46055;DHT22;31788;6.954;-71.872;2022-08-21T05:37:12;25.70;99.90
46055;DHT22;31788;6.954;-71.872;2022-08-21T05:39:39;25.70;99.90
46055;DHT22;31788;6.954;-71.872;2022-08-21T05:42:06;25.70;99.90
46055;DHT22;31788;6.954;-71.872;2022-08-21T05:44:32;25.70;99.90
46055;DHT22;31788;6.954;-71.872;2022-08-21T05:47:07;25.70;99.90
46055;DHT22;31788;6.954;-71.872;2022-08-21T05:49:34;25.60;99.90
46055;DHT22;31788;6.954;-71.872;2022-08-21T05:52:02;25.60;99.90
46055;DHT22;31788;6.954;-71.872;2022-08-21T05:54:30;25.60;99.90
46055;DHT22;31788;6.954;-71.872;2022-08-21T05:56:57;25.60;99.90
46055;DHT22;31788;6.954;-71.872;2022-08-21T05:59:24;25.70;99.90
46055;DHT22;31788;6.954;-71.872;2022-08-21T06:01:50;25.70;99.90
46055;DHT22;31788;6.954;-71.872;2022-08-21T06:04:18;25.70;99.90
46055;DHT22;31788;6.954;-71.872;2022-08-21T06:06:45;25.80;99.90
46055;DHT22;31788;6.954;-71.872;2022-08-21T06:09:13;25.80;99.90
46055;DHT22;31788;6.954;-71.872;2022-08-21T06:11:40;25.70;99.90
46055;DHT22;31788;6.954;-71.872;2022-08-21T06:14:06;25.70;99.90
46055;DHT22;31788;6.954;-71.872;2022-08-21T06:16:33;25.70;99.90
46055;DHT22;31788;6.954;-71.872;2022-08-21T06:19:00;25.70;99.90
46055;DHT22;31788;6.954;-71.872;2022-08-21T06:21:26;25.70;99.90
46055;DHT22;31788;6.954;-71.872;2022-08-21T06:23:53;25.80;99.90
46055;DHT22;31788;6.954;-71.872;2022-08-21T06:26:19;25.70;99.90
46055;DHT22;31788;6.954;-71.872;2022-08-21T06:28:47;25.70;99.90
46055;DHT22;31788;6.954;-71.872;2022-08-21T06:31:19;25.70;99.90
46055;DHT22;31788;6.954;-71.872;2022-08-21T06:33:46;25.70;99.90
46055;DHT22;31788;6.954;-71.872;2022-08-21T06:36:13;25.60;99.90
46055;DHT22;31788;6.954;-71.872;2022-08-21T06:38:40;25.60;99.90
46055;DHT22;31788;6.954;-71.872;2022-08-21T06:41:07;25.50;99.90
46055;DHT22;31788;6.954;-71.872;2022-08-21T06:43:34;25.50;99.90
46055;DHT22;31788;6.954;-71.872;2022-08-21T06:46:01;25.50;99.90
46055;DHT22;31788;6.954;-71.872;2022-08-21T06:48:27;25.50;99.90
46055;DHT22;31788;6.954;-71.872;2022-08-21T06:50:55;25.50;99.90
46055;DHT22;31788;6.954;-71.872;2022-08-21T06:53:22;25.50;99.90
46055;DHT22;31788;6.954;-71.872;2022-08-21T06:55:48;25.40;99.90
46055;DHT22;31788;6.954;-71.872;2022-08-21T06:58:16;25.30;99.90
46055;DHT22;31788;6.954;-71.872;2022-08-21T07:00:45;25.30;99.90
46055;DHT22;31788;6.954;-71.872;2022-08-21T07:03:24;25.20;99.90
46055;DHT22;31788;6.954;-71.872;2022-08-21T07:05:53;25.30;99.90
46055;DHT22;31788;6.954;-71.872;2022-08-21T07:08:21;25.30;99.90
46055;DHT22;31788;6.954;-71.872;2022-08-21T07:10:49;25.40;99.90
46055;DHT22;31788;6.954;-71.872;2022-08-21T07:13:15;25.40;99.90
46055;DHT22;31788;6.954;-71.872;2022-08-21T07:15:42;25.30;99.90
46055;DHT22;31788;6.954;-71.872;2022-08-21T07:18:11;25.30;99.90
46055;DHT22;31788;6.954;-71.872;2022-08-21T07:20:40;25.20;99.90
46055;DHT22;31788;6.954;-71.872;2022-08-21T07:23:16;25.20;99.90
46055;DHT22;31788;6.954;-71.872;2022-08-21T07:25:45;25.20;99.90
46055;DHT22;31788;6.954;-71.872;2022-08-21T07:28:12;25.30;99.90
46055;DHT22;31788;6.954;-71.872;2022-08-21T07:30:38;25.30;99.90
46055;DHT22;31788;6.954;-71.872;2022-08-21T07:33:05;25.30;99.90
46055;DHT22;31788;6.954;-71.872;2022-08-21T07:35:31;25.20;99.90
46055;DHT22;31788;6.954;-71.872;2022-08-21T07:37:59;25.20;99.90
46055;DHT22;31788;6.954;-71.872;2022-08-21T07:40:25;25.20;99.90
46055;DHT22;31788;6.954;-71.872;2022-08-21T07:42:52;25.30;99.90
46055;DHT22;31788;6.954;-71.872;2022-08-21T07:45:21;25.20;99.90
46055;DHT22;31788;6.954;-71.872;2022-08-21T07:47:48;25.30;99.90
46055;DHT22;31788;6.954;-71.872;2022-08-21T07:50:16;25.30;99.90
46055;DHT22;31788;6.954;-71.872;2022-08-21T07:52:43;25.30;99.90
46055;DHT22;31788;6.954;-71.872;2022-08-21T07:55:13;25.30;99.90
46055;DHT22;31788;6.954;-71.872;2022-08-21T07:57:40;25.30;99.90
46055;DHT22;31788;6.954;-71.872;2022-08-21T08:00:10;25.30;99.90
46055;DHT22;31788;6.954;-71.872;2022-08-21T08:02:37;25.30;99.90
46055;DHT22;31788;6.954;-71.872;2022-08-21T08:05:07;25.20;99.90
46055;DHT22;31788;6.954;-71.872;2022-08-21T08:07:34;25.20;99.90
46055;DHT22;31788;6.954;-71.872;2022-08-21T08:10:02;25.30;99.90
46055;DHT22;31788;6.954;-71.872;2022-08-21T08:12:28;25.30;99.90
46055;DHT22;31788;6.954;-71.872;2022-08-21T08:14:59;25.30;99.90
46055;DHT22;31788;6.954;-71.872;2022-08-21T08:17:26;25.30;99.90
46055;DHT22;31788;6.954;-71.872;2022-08-21T08:19:53;25.30;99.90
46055;DHT22;31788;6.954;-71.872;2022-08-21T08:22:22;25.30;99.90
46055;DHT22;31788;6.954;-71.872;2022-08-21T08:24:51;25.40;99.90
46055;DHT22;31788;6.954;-71.872;2022-08-21T08:27:17;25.30;99.90
46055;DHT22;31788;6.954;-71.872;2022-08-21T08:29:44;25.30;99.90
46055;DHT22;31788;6.954;-71.872;2022-08-21T08:32:11;25.20;99.90
46055;DHT22;31788;6.954;-71.872;2022-08-21T08:34:39;25.20;99.90
46055;DHT22;31788;6.954;-71.872;2022-08-21T08:37:07;25.20;99.90
46055;DHT22;31788;6.954;-71.872;2022-08-21T08:39:36;25.20;99.90
46055;DHT22;31788;6.954;-71.872;2022-08-21T08:42:07;25.20;99.90
46055;DHT22;31788;6.954;-71.872;2022-08-21T08:44:41;25.30;99.90
46055;DHT22;31788;6.954;-71.872;2022-08-21T08:47:10;25.40;99.90
46055;DHT22;31788;6.954;-71.872;2022-08-21T08:49:40;25.30;99.90
46055;DHT22;31788;6.954;-71.872;2022-08-21T08:55:01;25.30;99.90
46055;DHT22;31788;6.954;-71.872;2022-08-21T08:57:28;25.30;99.90
46055;DHT22;31788;6.954;-71.872;2022-08-21T08:59:59;25.30;99.90
46055;DHT22;31788;6.954;-71.872;2022-08-21T09:02:26;25.40;99.90
46055;DHT22;31788;6.954;-71.872;2022-08-21T09:04:56;25.40;99.90
46055;DHT22;31788;6.954;-71.872;2022-08-21T09:10:22;25.30;99.90
46055;DHT22;31788;6.954;-71.872;2022-08-21T09:13:21;25.30;99.90
46055;DHT22;31788;6.954;-71.872;2022-08-21T09:16:11;25.30;99.90
46055;DHT22;31788;6.954;-71.872;2022-08-21T09:19:06;25.30;99.90
46055;DHT22;31788;6.954;-71.872;2022-08-21T09:21:46;25.40;99.90
46055;DHT22;31788;6.954;-71.872;2022-08-21T09:27:06;25.40;99.90
46055;DHT22;31788;6.954;-71.872;2022-08-21T09:29:40;25.40;99.90
46055;DHT22;31788;6.954;-71.872;2022-08-21T09:32:28;25.40;99.90
46055;DHT22;31788;6.954;-71.872;2022-08-21T09:37:28;25.30;99.90
46055;DHT22;31788;6.954;-71.872;2022-08-21T09:39:56;25.30;99.90
46055;DHT22;31788;6.954;-71.872;2022-08-21T09:42:26;25.30;99.90
46055;DHT22;31788;6.954;-71.872;2022-08-21T09:45:16;25.30;99.90
46055;DHT22;31788;6.954;-71.872;2022-08-21T09:47:43;25.30;99.90
46055;DHT22;31788;6.954;-71.872;2022-08-21T09:50:24;25.30;99.90
46055;DHT22;31788;6.954;-71.872;2022-08-21T09:52:56;25.30;99.90
46055;DHT22;31788;6.954;-71.872;2022-08-21T09:58:18;25.30;99.90
46055;DHT22;31788;6.954;-71.872;2022-08-21T10:00:47;25.30;99.90
46055;DHT22;31788;6.954;-71.872;2022-08-21T10:03:22;25.40;99.90
46055;DHT22;31788;6.954;-71.872;2022-08-21T10:08:22;25.30;99.90
46055;DHT22;31788;6.954;-71.872;2022-08-21T10:11:01;25.30;99.90
46055;DHT22;31788;6.954;-71.872;2022-08-21T10:16:46;25.20;99.90
46055;DHT22;31788;6.954;-71.872;2022-08-21T10:19:37;25.20;99.90
46055;DHT22;31788;6.954;-71.872;2022-08-21T10:30:07;25.30;99.90
46055;DHT22;31788;6.954;-71.872;2022-08-21T10:35:33;25.30;99.90
46055;DHT22;31788;6.954;-71.872;2022-08-21T10:38:25;25.30;99.90
46055;DHT22;31788;6.954;-71.872;2022-08-21T10:40:58;25.30;99.90
46055;DHT22;31788;6.954;-71.872;2022-08-21T10:48:58;25.40;99.90
46055;DHT22;31788;6.954;-71.872;2022-08-21T10:57:40;25.40;99.90
46055;DHT22;31788;6.954;-71.872;2022-08-21T11:00:14;25.30;99.90
46055;DHT22;31788;6.954;-71.872;2022-08-21T11:02:52;25.20;99.90
46055;DHT22;31788;6.954;-71.872;2022-08-21T11:05:33;25.20;99.90
46055;DHT22;31788;6.954;-71.872;2022-08-21T11:08:10;25.10;99.90
46055;DHT22;31788;6.954;-71.872;2022-08-21T11:13:49;25.10;99.90
46055;DHT22;31788;6.954;-71.872;2022-08-21T11:16:37;25.20;99.90
46055;DHT22;31788;6.954;-71.872;2022-08-21T11:29:45;25.30;99.90
46055;DHT22;31788;6.954;-71.872;2022-08-21T11:46:00;25.40;99.90
46055;DHT22;31788;6.954;-71.872;2022-08-21T11:51:22;25.60;99.90
46055;DHT22;31788;6.954;-71.872;2022-08-21T11:57:30;25.70;99.90
46055;DHT22;31788;6.954;-71.872;2022-08-21T12:02:56;25.70;99.90
46055;DHT22;31788;6.954;-71.872;2022-08-21T12:05:40;25.70;99.90
46055;DHT22;31788;6.954;-71.872;2022-08-21T12:08:12;25.70;99.90
46055;DHT22;31788;6.954;-71.872;2022-08-21T12:10:58;25.60;99.90
46055;DHT22;31788;6.954;-71.872;2022-08-21T12:13:31;25.50;99.90
46055;DHT22;31788;6.954;-71.872;2022-08-21T12:16:24;25.70;99.90
46055;DHT22;31788;6.954;-71.872;2022-08-21T12:21:30;25.70;99.90
46055;DHT22;31788;6.954;-71.872;2022-08-21T12:24:16;25.80;99.90
46055;DHT22;31788;6.954;-71.872;2022-08-21T12:26:55;25.80;99.90
46055;DHT22;31788;6.954;-71.872;2022-08-21T12:29:29;25.90;99.90
46055;DHT22;31788;6.954;-71.872;2022-08-21T12:37:43;25.80;99.90
46055;DHT22;31788;6.954;-71.872;2022-08-21T12:40:41;25.70;99.90
46055;DHT22;31788;6.954;-71.872;2022-08-21T12:45:52;25.90;99.90
46055;DHT22;31788;6.954;-71.872;2022-08-21T12:51:26;25.90;99.90
46055;DHT22;31788;6.954;-71.872;2022-08-21T12:53:51;25.90;99.90
46055;DHT22;31788;6.954;-71.872;2022-08-21T12:56:20;25.90;99.90
46055;DHT22;31788;6.954;-71.872;2022-08-21T12:58:49;26.00;99.90
46055;DHT22;31788;6.954;-71.872;2022-08-21T13:01:35;26.10;99.90
46055;DHT22;31788;6.954;-71.872;2022-08-21T13:04:08;26.10;99.90
46055;DHT22;31788;6.954;-71.872;2022-08-21T13:06:43;26.20;99.90
46055;DHT22;31788;6.954;-71.872;2022-08-21T13:09:18;26.20;99.90
46055;DHT22;31788;6.954;-71.872;2022-08-21T13:11:47;26.30;99.90
46055;DHT22;31788;6.954;-71.872;2022-08-21T13:14:32;26.40;99.90
46055;DHT22;31788;6.954;-71.872;2022-08-21T13:17:00;26.30;99.90
46055;DHT22;31788;6.954;-71.872;2022-08-21T13:19:29;26.30;99.90
46055;DHT22;31788;6.954;-71.872;2022-08-21T13:21:58;26.30;99.90
46055;DHT22;31788;6.954;-71.872;2022-08-21T13:24:34;26.30;99.90
46055;DHT22;31788;6.954;-71.872;2022-08-21T13:27:01;26.40;99.90
46055;DHT22;31788;6.954;-71.872;2022-08-21T13:29:32;26.50;99.90
46055;DHT22;31788;6.954;-71.872;2022-08-21T13:32:03;26.40;99.90
46055;DHT22;31788;6.954;-71.872;2022-08-21T13:34:37;26.50;99.90
46055;DHT22;31788;6.954;-71.872;2022-08-21T13:37:06;26.60;99.90
46055;DHT22;31788;6.954;-71.872;2022-08-21T13:39:34;26.60;99.90
46055;DHT22;31788;6.954;-71.872;2022-08-21T13:42:02;26.60;99.90
46055;DHT22;31788;6.954;-71.872;2022-08-21T13:44:41;26.70;99.90
46055;DHT22;31788;6.954;-71.872;2022-08-21T13:47:11;26.80;99.90
46055;DHT22;31788;6.954;-71.872;2022-08-21T13:49:47;26.80;99.90
46055;DHT22;31788;6.954;-71.872;2022-08-21T13:52:22;26.90;99.90
46055;DHT22;31788;6.954;-71.872;2022-08-21T13:55:15;27.00;99.90
46055;DHT22;31788;6.954;-71.872;2022-08-21T13:57:43;27.20;99.90
46055;DHT22;31788;6.954;-71.872;2022-08-21T14:00:30;27.30;99.90
46055;DHT22;31788;6.954;-71.872;2022-08-21T14:03:09;27.40;99.90
46055;DHT22;31788;6.954;-71.872;2022-08-21T14:05:46;27.40;99.90
46055;DHT22;31788;6.954;-71.872;2022-08-21T14:08:35;27.50;99.90
46055;DHT22;31788;6.954;-71.872;2022-08-21T14:11:04;27.60;99.90
46055;DHT22;31788;6.954;-71.872;2022-08-21T14:13:43;27.70;99.90
46055;DHT22;31788;6.954;-71.872;2022-08-21T14:16:20;27.80;99.90
46055;DHT22;31788;6.954;-71.872;2022-08-21T14:18:53;27.80;99.90
46055;DHT22;31788;6.954;-71.872;2022-08-21T14:21:39;27.90;99.90
46055;DHT22;31788;6.954;-71.872;2022-08-21T14:24:28;27.90;99.90
46055;DHT22;31788;6.954;-71.872;2022-08-21T14:27:05;27.90;99.90
46055;DHT22;31788;6.954;-71.872;2022-08-21T14:29:36;27.90;99.90
46055;DHT22;31788;6.954;-71.872;2022-08-21T14:34:41;28.00;99.90
46055;DHT22;31788;6.954;-71.872;2022-08-21T14:37:07;28.00;99.50
46055;DHT22;31788;6.954;-71.872;2022-08-21T14:39:34;27.90;98.90
46055;DHT22;31788;6.954;-71.872;2022-08-21T14:42:01;28.00;99.00
46055;DHT22;31788;6.954;-71.872;2022-08-21T14:44:29;27.90;99.00
46055;DHT22;31788;6.954;-71.872;2022-08-21T14:46:55;28.00;99.10
46055;DHT22;31788;6.954;-71.872;2022-08-21T14:49:24;28.00;99.10
46055;DHT22;31788;6.954;-71.872;2022-08-21T14:51:56;28.00;99.40
46055;DHT22;31788;6.954;-71.872;2022-08-21T14:54:29;28.00;99.60
46055;DHT22;31788;6.954;-71.872;2022-08-21T14:56:57;28.10;99.80
46055;DHT22;31788;6.954;-71.872;2022-08-21T14:59:24;28.10;99.80
46055;DHT22;31788;6.954;-71.872;2022-08-21T15:01:51;28.10;99.70
46055;DHT22;31788;6.954;-71.872;2022-08-21T15:04:18;28.20;99.70
46055;DHT22;31788;6.954;-71.872;2022-08-21T15:06:45;28.20;99.40
46055;DHT22;31788;6.954;-71.872;2022-08-21T15:09:11;28.20;99.40
46055;DHT22;31788;6.954;-71.872;2022-08-21T15:11:38;28.20;98.40
46055;DHT22;31788;6.954;-71.872;2022-08-21T15:14:08;28.20;98.90
46055;DHT22;31788;6.954;-71.872;2022-08-21T15:16:37;28.20;99.20
46055;DHT22;31788;6.954;-71.872;2022-08-21T15:19:04;28.20;99.50
46055;DHT22;31788;6.954;-71.872;2022-08-21T15:21:32;28.20;99.50
46055;DHT22;31788;6.954;-71.872;2022-08-21T15:23:58;28.30;99.40
46055;DHT22;31788;6.954;-71.872;2022-08-21T15:26:25;28.30;99.20
46055;DHT22;31788;6.954;-71.872;2022-08-21T15:28:52;28.30;99.20
46055;DHT22;31788;6.954;-71.872;2022-08-21T15:31:18;28.20;99.10
46055;DHT22;31788;6.954;-71.872;2022-08-21T15:33:45;28.20;99.00
46055;DHT22;31788;6.954;-71.872;2022-08-21T15:36:11;28.20;99.30
46055;DHT22;31788;6.954;-71.872;2022-08-21T15:38:38;28.20;99.00
46055;DHT22;31788;6.954;-71.872;2022-08-21T15:41:06;28.20;99.00
46055;DHT22;31788;6.954;-71.872;2022-08-21T15:43:42;28.20;98.90
46055;DHT22;31788;6.954;-71.872;2022-08-21T15:46:13;28.20;98.90
46055;DHT22;31788;6.954;-71.872;2022-08-21T15:48:41;28.20;98.80
46055;DHT22;31788;6.954;-71.872;2022-08-21T15:51:11;28.20;98.80
46055;DHT22;31788;6.954;-71.872;2022-08-21T15:53:39;28.20;98.70
46055;DHT22;31788;6.954;-71.872;2022-08-21T15:56:11;28.20;98.60
46055;DHT22;31788;6.954;-71.872;2022-08-21T15:58:40;28.30;98.90
46055;DHT22;31788;6.954;-71.872;2022-08-21T16:01:06;28.30;98.70
46055;DHT22;31788;6.954;-71.872;2022-08-21T16:03:33;28.30;98.90
46055;DHT22;31788;6.954;-71.872;2022-08-21T16:06:00;28.40;98.90
46055;DHT22;31788;6.954;-71.872;2022-08-21T16:08:26;28.40;98.90
46055;DHT22;31788;6.954;-71.872;2022-08-21T16:10:54;28.50;98.90
46055;DHT22;31788;6.954;-71.872;2022-08-21T16:13:27;28.50;98.70
46055;DHT22;31788;6.954;-71.872;2022-08-21T16:15:56;28.60;98.70
46055;DHT22;31788;6.954;-71.872;2022-08-21T16:18:23;28.70;98.90
46055;DHT22;31788;6.954;-71.872;2022-08-21T16:20:52;28.70;98.80
46055;DHT22;31788;6.954;-71.872;2022-08-21T16:23:19;28.70;98.90
46055;DHT22;31788;6.954;-71.872;2022-08-21T16:25:49;28.80;98.80
46055;DHT22;31788;6.954;-71.872;2022-08-21T16:28:18;28.80;99.10
46055;DHT22;31788;6.954;-71.872;2022-08-21T16:30:48;28.80;99.00
46055;DHT22;31788;6.954;-71.872;2022-08-21T16:35:53;28.80;99.00
46055;DHT22;31788;6.954;-71.872;2022-08-21T16:38:20;28.80;98.10
46055;DHT22;31788;6.954;-71.872;2022-08-21T16:40:47;28.80;98.10
46055;DHT22;31788;6.954;-71.872;2022-08-21T16:43:14;28.80;97.90
46055;DHT22;31788;6.954;-71.872;2022-08-21T16:45:42;28.80;98.20
46055;DHT22;31788;6.954;-71.872;2022-08-21T16:48:09;28.80;98.10
46055;DHT22;31788;6.954;-71.872;2022-08-21T16:50:36;28.80;97.60
46055;DHT22;31788;6.954;-71.872;2022-08-21T16:53:07;28.80;97.90
46055;DHT22;31788;6.954;-71.872;2022-08-21T16:55:35;28.90;98.00
46055;DHT22;31788;6.954;-71.872;2022-08-21T16:58:07;28.90;97.90
46055;DHT22;31788;6.954;-71.872;2022-08-21T17:00:34;28.80;97.30
46055;DHT22;31788;6.954;-71.872;2022-08-21T17:03:01;28.80;97.50
46055;DHT22;31788;6.954;-71.872;2022-08-21T17:05:27;28.80;97.60
46055;DHT22;31788;6.954;-71.872;2022-08-21T17:07:54;28.80;97.80
46055;DHT22;31788;6.954;-71.872;2022-08-21T17:10:21;28.80;98.00